Time;durP1;ratioP1;P1;durP2;ratioP2;P2;SDS_P1;SDS_P2;PMS_P1;PMS_P2;Temp;Humidity;BMP_temperature;BMP_pressure;BME280_temperature;BME280_humidity;BME280_pressure;Samples;Min_cycle;Max_cycle;Signal;HPM_P1;HPM_P2
2021/01/06 00:01:04;;;;;;;27.90;13.45;;;1.50;65.60;;;;;;5046436;28;20053;-76
2021/01/06 00:03:31;;;;;;;25.13;12.45;;;1.40;65.10;;;;;;5047644;28;20053;-74
2021/01/06 00:06:00;;;;;;;25.67;12.98;;;1.40;65.20;;;;;;5047679;28;20047;-74
2021/01/06 00:08:27;;;;;;;26.73;12.85;;;1.50;66.00;;;;;;5044280;28;20060;-72
2021/01/06 00:10:57;;;;;;;26.13;12.98;;;1.40;64.70;;;;;;5046663;28;20053;-75
2021/01/06 00:13:25;;;;;;;25.60;12.85;;;1.40;64.50;;;;;;5048027;28;20588;-74
2021/01/06 00:15:52;;;;;;;26.52;13.45;;;1.40;63.50;;;;;;5049531;28;20163;-74
2021/01/06 00:18:20;;;;;;;26.52;13.10;;;1.50;64.40;;;;;;5047215;28;20045;-74
2021/01/06 00:20:48;;;;;;;26.10;12.00;;;1.40;63.10;;;;;;5046261;28;20540;-73
2021/01/06 00:23:15;;;;;;;25.23;13.43;;;1.40;63.30;;;;;;5047411;28;20055;-74
2021/01/06 00:25:42;;;;;;;23.08;12.85;;;1.40;63.60;;;;;;5044633;28;20068;-73
2021/01/06 00:28:12;;;;;;;23.48;13.00;;;1.40;63.10;;;;;;5050380;28;20508;-75
2021/01/06 00:30:42;;;;;;;23.17;12.73;;;1.40;63.20;;;;;;5050612;28;20052;-75
2021/01/06 00:33:11;;;;;;;26.00;12.57;;;1.40;63.20;;;;;;5050480;28;20060;-73
2021/01/06 00:35:38;;;;;;;23.77;12.70;;;1.40;61.50;;;;;;5053045;28;20049;-73
2021/01/06 00:38:06;;;;;;;24.27;12.68;;;1.40;62.90;;;;;;5051235;28;20459;-73
2021/01/06 00:40:34;;;;;;;21.92;11.30;;;1.30;63.00;;;;;;5049484;28;20415;-73
2021/01/06 00:43:04;;;;;;;21.27;11.88;;;1.40;63.10;;;;;;5047583;28;20053;-75
2021/01/06 00:45:32;;;;;;;22.52;11.20;;;1.30;63.00;;;;;;5052980;28;20060;-73
2021/01/06 00:48:00;;;;;;;21.10;10.95;;;1.30;62.80;;;;;;5051058;28;20135;-72
2021/01/06 00:50:29;;;;;;;18.90;10.50;;;1.30;62.50;;;;;;5049637;28;20047;-73
2021/01/06 00:52:58;;;;;;;24.85;11.88;;;1.30;63.00;;;;;;5051250;28;20059;-74
2021/01/06 00:55:25;;;;;;;20.88;10.77;;;1.30;62.60;;;;;;5052282;28;20044;-72
2021/01/06 00:57:52;;;;;;;18.92;10.25;;;1.30;62.80;;;;;;5050743;28;20052;-74
2021/01/06 01:00:22;;;;;;;21.38;11.23;;;1.30;62.80;;;;;;5048456;28;20128;-73
2021/01/06 01:02:51;;;;;;;19.20;11.07;;;1.30;63.00;;;;;;5049196;28;20056;-71
2021/01/06 01:05:19;;;;;;;19.00;11.13;;;1.30;63.20;;;;;;5051255;28;20506;-77
2021/01/06 01:07:47;;;;;;;22.77;11.05;;;1.20;62.80;;;;;;5052445;28;20072;-73
2021/01/06 01:10:22;;;;;;;21.75;11.27;;;1.30;63.00;;;;;;5047537;28;20053;-73
2021/01/06 01:12:51;;;;;;;20.38;10.50;;;1.30;63.10;;;;;;5049743;28;20055;-73
2021/01/06 01:15:20;;;;;;;21.30;10.65;;;1.20;62.70;;;;;;5051505;28;20049;-73
2021/01/06 01:17:46;;;;;;;21.40;10.68;;;1.20;62.10;;;;;;5051358;28;20063;-73
2021/01/06 01:20:15;;;;;;;16.13;10.00;;;1.20;63.40;;;;;;5046317;28;20051;-73
2021/01/06 01:22:44;;;;;;;18.92;9.82;;;1.20;63.60;;;;;;5048458;28;20045;-71
2021/01/06 01:25:12;;;;;;;18.90;9.80;;;1.20;62.90;;;;;;5049336;28;20047;-71
2021/01/06 01:27:39;;;;;;;18.13;10.95;;;1.20;63.80;;;;;;5050742;28;20060;-71
2021/01/06 01:30:08;;;;;;;19.27;9.90;;;1.20;63.90;;;;;;5045433;28;20052;-71
2021/01/06 01:32:35;;;;;;;21.38;10.57;;;1.10;64.10;;;;;;5046669;28;20083;-71
2021/01/06 01:35:04;;;;;;;19.70;11.25;;;1.20;64.50;;;;;;5049818;28;20136;-74
2021/01/06 01:37:32;;;;;;;17.92;10.77;;;1.10;64.20;;;;;;5049014;28;20048;-73
2021/01/06 01:39:59;;;;;;;19.45;10.25;;;1.20;64.30;;;;;;5045363;28;20045;-73
2021/01/06 01:42:26;;;;;;;19.35;10.13;;;1.10;63.40;;;;;;5048647;28;20052;-74
2021/01/06 01:45:01;;;;;;;20.23;11.45;;;1.20;64.40;;;;;;5049228;28;20090;-73
2021/01/06 01:47:37;;;;;;;22.48;11.23;;;1.20;64.50;;;;;;5049957;28;20041;-71
2021/01/06 01:50:06;;;;;;;21.00;11.60;;;1.20;64.60;;;;;;5044573;28;20063;-71
2021/01/06 01:52:40;;;;;;;19.52;10.93;;;1.20;65.00;;;;;;5047432;28;20083;-71
2021/01/06 01:55:10;;;;;;;22.23;11.75;;;1.20;64.60;;;;;;5047980;28;20128;-71
2021/01/06 01:57:42;;;;;;;19.40;10.70;;;1.20;65.00;;;;;;5050891;28;20055;-73
2021/01/06 02:00:12;;;;;;;22.38;11.25;;;1.20;65.50;;;;;;5043051;28;20045;-73
2021/01/06 02:02:47;;;;;;;21.13;11.38;;;1.10;65.30;;;;;;5047077;28;20052;-73
2021/01/06 02:05:20;;;;;;;21.65;10.95;;;1.10;66.90;;;;;;5046918;28;20041;-72
2021/01/06 02:07:53;;;;;;;23.05;11.57;;;1.20;66.40;;;;;;5050805;28;20048;-73
2021/01/06 02:10:26;;;;;;;23.08;12.63;;;1.10;66.80;;;;;;5046122;28;20045;-72
2021/01/06 02:13:00;;;;;;;25.60;12.73;;;1.20;66.50;;;;;;5045267;28;20052;-73
2021/01/06 02:15:33;;;;;;;24.42;13.13;;;1.10;65.70;;;;;;5047007;28;20045;-73
2021/01/06 02:18:01;;;;;;;22.63;11.75;;;1.10;66.60;;;;;;5049819;28;20124;-72
2021/01/06 02:20:28;;;;;;;23.55;12.15;;;1.10;66.90;;;;;;5045427;28;20057;-72
2021/01/06 02:22:56;;;;;;;23.77;12.38;;;1.10;67.90;;;;;;5050518;28;20434;-72
2021/01/06 02:25:26;;;;;;;21.98;11.73;;;1.00;68.80;;;;;;5046426;28;20044;-72
2021/01/06 02:27:55;;;;;;;24.10;12.63;;;1.00;69.50;;;;;;5048796;28;20049;-75
2021/01/06 02:30:23;;;;;;;20.83;11.68;;;0.90;70.20;;;;;;5047205;28;20053;-73
2021/01/06 02:32:50;;;;;;;23.27;12.45;;;0.90;71.50;;;;;;5048638;28;20051;-72
2021/01/06 02:35:19;;;;;;;27.25;12.20;;;0.90;72.10;;;;;;5047991;28;20422;-71
2021/01/06 02:37:48;;;;;;;25.65;13.40;;;0.80;72.60;;;;;;5052261;28;20489;-72
2021/01/06 02:40:18;;;;;;;26.63;12.70;;;0.80;73.10;;;;;;5044399;28;20052;-71
2021/01/06 02:42:45;;;;;;;23.33;12.35;;;0.80;73.70;;;;;;5047615;28;20056;-71
2021/01/06 02:45:15;;;;;;;22.27;12.43;;;0.80;73.90;;;;;;5051620;28;20052;-73
2021/01/06 02:47:47;;;;;;;23.25;13.18;;;0.70;74.30;;;;;;5051619;28;20053;-72
2021/01/06 02:50:16;;;;;;;22.92;12.98;;;0.70;75.00;;;;;;5045102;28;20067;-71
2021/01/06 02:52:49;;;;;;;23.70;12.50;;;0.70;75.70;;;;;;5044465;28;20611;-71
2021/01/06 02:55:18;;;;;;;26.60;13.02;;;0.70;75.50;;;;;;5042497;28;20045;-72
2021/01/06 02:57:46;;;;;;;26.15;13.43;;;0.70;75.70;;;;;;5045197;28;20045;-71
2021/01/06 03:00:16;;;;;;;25.05;13.55;;;0.70;75.90;;;;;;5038062;28;20114;-71
2021/01/06 03:02:43;;;;;;;28.80;14.20;;;0.70;76.00;;;;;;5042995;28;20052;-70
2021/01/06 03:05:18;;;;;;;26.83;13.18;;;0.70;76.10;;;;;;5044437;28;20045;-73
2021/01/06 03:07:46;;;;;;;24.70;13.63;;;0.70;76.30;;;;;;5045188;28;20486;-73
2021/01/06 03:10:16;;;;;;;29.90;13.98;;;0.70;76.30;;;;;;5040099;28;20041;-74
2021/01/06 03:12:45;;;;;;;31.15;14.00;;;0.70;76.40;;;;;;5043718;28;20051;-70
2021/01/06 03:15:16;;;;;;;27.95;14.32;;;0.70;76.40;;;;;;5043713;28;20045;-71
2021/01/06 03:17:43;;;;;;;30.85;14.73;;;0.80;76.60;;;;;;5048660;28;20052;-71
2021/01/06 03:20:14;;;;;;;28.40;14.63;;;0.70;76.50;;;;;;5049159;28;20070;-73
2021/01/06 03:22:44;;;;;;;29.10;13.80;;;0.70;76.60;;;;;;5051018;28;20080;-73
2021/01/06 03:25:14;;;;;;;27.33;13.50;;;0.70;76.60;;;;;;5049593;28;20079;-76
2021/01/06 03:27:44;;;;;;;26.85;13.50;;;0.70;76.40;;;;;;5052075;28;20562;-73
2021/01/06 03:30:16;;;;;;;27.33;14.48;;;0.70;76.60;;;;;;5050535;28;20415;-72
2021/01/06 03:32:47;;;;;;;28.13;14.95;;;0.70;76.40;;;;;;5048796;28;20045;-73
2021/01/06 03:35:20;;;;;;;25.52;13.68;;;0.70;76.60;;;;;;5043674;28;20045;-73
2021/01/06 03:37:52;;;;;;;26.63;13.98;;;0.70;76.70;;;;;;5050845;28;20056;-74
2021/01/06 03:40:24;;;;;;;26.40;13.63;;;0.70;76.70;;;;;;5049423;28;20771;-72
2021/01/06 03:42:54;;;;;;;29.00;14.05;;;0.80;76.80;;;;;;5049049;28;20053;-73
2021/01/06 03:45:25;;;;;;;25.52;12.73;;;0.80;77.10;;;;;;5050327;28;20055;-73
2021/01/06 03:47:59;;;;;;;29.23;14.32;;;0.80;76.90;;;;;;5050116;28;20049;-72
2021/01/06 03:50:32;;;;;;;29.05;13.45;;;0.70;76.60;;;;;;5051102;28;20049;-72
2021/01/06 03:53:06;;;;;;;26.58;14.07;;;0.70;76.70;;;;;;5050097;28;20131;-72
2021/01/06 03:55:48;;;;;;;26.85;12.88;;;0.70;76.60;;;;;;5051055;28;20045;-71
2021/01/06 03:58:28;;;;;;;26.08;13.60;;;0.80;76.90;;;;;;5048914;28;20517;-73
2021/01/06 04:01:07;;;;;;;26.40;13.75;;;0.80;76.70;;;;;;5047298;28;20596;-73
2021/01/06 04:03:45;;;;;;;26.60;13.68;;;0.80;76.80;;;;;;5050194;28;20060;-73
2021/01/06 04:06:13;;;;;;;26.98;12.68;;;0.70;76.50;;;;;;5049174;28;20515;-73
2021/01/06 04:08:46;;;;;;;24.27;13.15;;;0.70;76.50;;;;;;5050687;28;20503;-72
2021/01/06 04:11:17;;;;;;;23.75;12.15;;;0.70;75.90;;;;;;5047769;28;20055;-72
2021/01/06 04:13:44;;;;;;;23.77;12.65;;;0.70;76.10;;;;;;5050738;28;20411;-73
2021/01/06 04:16:13;;;;;;;20.77;11.65;;;0.80;76.20;;;;;;5051487;28;20064;-72
2021/01/06 04:18:40;;;;;;;25.02;12.20;;;0.80;76.40;;;;;;5051606;28;20053;-72
2021/01/06 04:21:07;;;;;;;24.08;12.60;;;0.80;75.90;;;;;;5045935;28;20041;-73
2021/01/06 04:23:34;;;;;;;22.55;11.23;;;0.80;75.70;;;;;;5049800;28;20060;-72
2021/01/06 04:26:02;;;;;;;20.02;11.35;;;0.80;75.10;;;;;;5050871;28;20047;-74
2021/01/06 04:28:32;;;;;;;21.08;11.77;;;0.70;74.90;;;;;;5049575;28;20052;-72
2021/01/06 04:31:05;;;;;;;19.60;11.05;;;0.80;75.10;;;;;;5047551;28;20135;-73
2021/01/06 04:33:34;;;;;;;18.38;10.27;;;0.70;74.40;;;;;;5049016;28;20063;-73
2021/01/06 04:36:05;;;;;;;22.45;11.98;;;0.80;75.00;;;;;;5049767;28;20067;-71
2021/01/06 04:38:35;;;;;;;21.55;11.77;;;0.80;75.20;;;;;;5049451;28;20381;-73
2021/01/06 04:41:20;;;;;;;18.80;10.38;;;0.70;74.40;;;;;;5048840;28;20048;-74
2021/01/06 04:43:55;;;;;;;19.75;10.93;;;0.80;74.60;;;;;;5049699;28;20044;-73
2021/01/06 04:46:32;;;;;;;20.25;11.32;;;0.80;74.60;;;;;;5049694;28;20037;-74
2021/01/06 04:49:10;;;;;;;20.08;11.13;;;0.80;74.50;;;;;;5049667;28;20048;-73
2021/01/06 04:51:48;;;;;;;19.63;10.98;;;0.80;75.10;;;;;;5048064;28;20055;-75
2021/01/06 04:54:39;;;;;;;16.60;9.98;;;0.80;74.50;;;;;;5049495;28;20048;-75
2021/01/06 04:57:25;;;;;;;19.65;10.60;;;0.80;74.20;;;;;;5049819;28;20045;-73
2021/01/06 05:00:06;;;;;;;19.00;9.98;;;0.80;74.50;;;;;;5050506;28;20053;-73
2021/01/06 05:02:56;;;;;;;19.83;10.88;;;0.80;74.50;;;;;;5048713;28;20049;-73
2021/01/06 05:06:10;;;;;;;17.75;9.52;;;0.80;74.50;;;;;;5045434;28;20048;-74
2021/01/06 05:08:41;;;;;;;18.52;10.25;;;0.80;74.20;;;;;;5012945;28;20056;-73
2021/01/06 05:11:13;;;;;;;19.52;9.68;;;0.80;73.50;;;;;;5047273;28;20049;-73
2021/01/06 05:13:46;;;;;;;15.27;8.95;;;0.80;74.00;;;;;;5051591;28;20045;-73
2021/01/06 05:16:16;;;;;;;18.95;8.85;;;0.80;73.20;;;;;;5052253;28;21268;-74
2021/01/06 05:18:45;;;;;;;16.10;9.00;;;0.80;72.60;;;;;;5052222;28;20067;-73
2021/01/06 05:21:14;;;;;;;17.17;8.90;;;0.80;73.00;;;;;;5050742;28;20045;-73
2021/01/06 05:23:42;;;;;;;15.32;8.70;;;0.80;73.70;;;;;;5052314;28;20060;-73
2021/01/06 05:26:09;;;;;;;15.32;9.02;;;0.80;72.70;;;;;;5052589;28;20047;-75
2021/01/06 05:28:36;;;;;;;14.88;9.48;;;0.80;72.80;;;;;;5053268;28;20056;-73
2021/01/06 05:31:03;;;;;;;17.05;9.07;;;0.80;73.50;;;;;;5051837;28;20040;-72
2021/01/06 05:33:33;;;;;;;18.60;9.82;;;0.80;72.60;;;;;;5054018;28;20415;-72
2021/01/06 05:36:02;;;;;;;14.75;8.93;;;0.80;72.70;;;;;;5053433;28;20074;-73
2021/01/06 05:38:30;;;;;;;13.35;8.20;;;0.80;73.10;;;;;;5052136;28;20049;-73
2021/01/06 05:40:57;;;;;;;15.02;9.23;;;0.80;72.10;;;;;;5052088;28;20387;-72
2021/01/06 05:43:43;;;;;;;14.68;8.68;;;0.80;72.70;;;;;;5053762;28;20049;-72
2021/01/06 05:46:25;;;;;;;14.00;8.52;;;0.80;72.20;;;;;;5053197;28;20154;-74
2021/01/06 05:48:55;;;;;;;14.18;8.38;;;0.80;70.80;;;;;;5052029;28;20045;-72
2021/01/06 05:51:30;;;;;;;15.25;8.88;;;0.80;72.20;;;;;;5051482;28;20041;-74
2021/01/06 05:54:01;;;;;;;13.75;8.40;;;0.80;71.50;;;;;;5052100;28;20045;-74
2021/01/06 05:56:46;;;;;;;13.88;8.50;;;0.80;71.50;;;;;;5053166;28;20114;-74
2021/01/06 05:59:24;;;;;;;13.50;8.35;;;0.90;72.80;;;;;;5050870;28;20573;-73
2021/01/06 06:01:56;;;;;;;13.30;8.13;;;0.90;70.90;;;;;;5050997;28;20045;-73
2021/01/06 06:04:35;;;;;;;17.80;8.90;;;0.90;70.10;;;;;;5051430;28;20535;-73
2021/01/06 06:07:26;;;;;;;15.70;9.00;;;0.90;70.70;;;;;;5052299;28;20045;-72
2021/01/06 06:10:19;;;;;;;14.45;8.15;;;0.90;70.70;;;;;;5053085;28;20044;-71
2021/01/06 06:12:58;;;;;;;14.45;8.20;;;0.90;71.00;;;;;;5052119;28;20419;-73
2021/01/06 06:15:49;;;;;;;12.57;7.82;;;0.90;69.90;;;;;;5051689;28;20041;-73
2021/01/06 06:18:42;;;;;;;15.85;9.00;;;0.90;70.60;;;;;;5049545;28;20433;-73
2021/01/06 06:21:24;;;;;;;13.05;7.85;;;0.90;69.80;;;;;;5050980;28;20048;-72
2021/01/06 06:24:28;;;;;;;13.98;8.30;;;0.90;70.30;;;;;;5048297;28;20460;-72
2021/01/06 06:27:26;;;;;;;14.80;8.30;;;0.80;70.40;;;;;;5017306;28;20491;-71
2021/01/06 06:30:03;;;;;;;11.30;7.53;;;0.80;70.60;;;;;;5032847;28;20053;-72
2021/01/06 06:32:32;;;;;;;13.35;7.88;;;0.80;70.40;;;;;;5052835;28;20652;-73
2021/01/06 06:35:06;;;;;;;15.82;7.95;;;0.80;70.00;;;;;;5052169;28;20499;-72
2021/01/06 06:37:33;;;;;;;14.05;8.25;;;0.80;70.20;;;;;;5051461;28;20503;-72
2021/01/06 06:40:10;;;;;;;12.18;7.32;;;0.80;69.80;;;;;;5050839;28;20045;-71
2021/01/06 06:42:48;;;;;;;13.27;7.82;;;0.80;69.30;;;;;;5050821;28;20063;-74
2021/01/06 06:45:51;;;;;;;11.77;7.32;;;0.90;68.50;;;;;;5051113;28;20053;-72
2021/01/06 06:48:35;;;;;;;13.30;8.07;;;0.90;68.30;;;;;;5031136;28;20053;-73
2021/01/06 06:51:10;;;;;;;12.23;7.32;;;0.90;66.70;;;;;;5042046;28;20086;-73
2021/01/06 06:53:44;;;;;;;11.35;7.10;;;0.80;65.50;;;;;;5052718;28;20060;-73
2021/01/06 06:56:20;;;;;;;12.35;7.13;;;0.80;66.30;;;;;;5052778;28;20047;-72
2021/01/06 06:58:51;;;;;;;14.20;7.45;;;0.90;66.50;;;;;;5052284;28;20053;-72
2021/01/06 07:01:24;;;;;;;12.88;7.50;;;0.80;66.50;;;;;;5052334;28;20059;-71
2021/01/06 07:03:56;;;;;;;12.13;7.60;;;0.90;67.90;;;;;;5051819;28;20072;-74
2021/01/06 07:06:25;;;;;;;13.88;8.13;;;0.90;68.20;;;;;;5051844;28;20471;-72
2021/01/06 07:08:54;;;;;;;11.40;6.50;;;0.90;67.90;;;;;;5051523;28;20117;-73
2021/01/06 07:11:31;;;;;;;11.88;7.13;;;0.90;66.70;;;;;;5049708;28;20049;-75
2021/01/06 07:14:02;;;;;;;12.43;7.40;;;0.90;66.70;;;;;;5050485;28;20517;-74
2021/01/06 07:16:33;;;;;;;12.00;7.35;;;0.90;65.30;;;;;;5051508;28;20040;-75
2021/01/06 07:19:24;;;;;;;11.00;7.45;;;0.90;65.60;;;;;;5051382;28;20063;-74
2021/01/06 07:21:54;;;;;;;11.27;7.35;;;0.90;65.70;;;;;;5050386;28;20045;-75
2021/01/06 07:24:23;;;;;;;10.48;6.80;;;0.90;65.40;;;;;;5051107;28;20757;-75
2021/01/06 07:26:54;;;;;;;10.95;6.90;;;0.90;65.30;;;;;;5049513;28;20044;-74
2021/01/06 07:29:24;;;;;;;11.77;7.72;;;0.80;64.70;;;;;;5051508;28;20049;-71
2021/01/06 07:31:58;;;;;;;13.02;7.30;;;0.90;66.10;;;;;;5051632;28;20049;-70
2021/01/06 07:34:37;;;;;;;13.88;7.78;;;0.90;66.70;;;;;;5050317;28;20049;-72
2021/01/06 07:37:07;;;;;;;14.07;7.50;;;0.90;67.00;;;;;;5046432;28;20063;-71
2021/01/06 07:39:36;;;;;;;13.30;7.32;;;0.80;67.00;;;;;;5051345;28;20521;-73
2021/01/06 07:42:06;;;;;;;13.98;7.25;;;0.80;66.80;;;;;;5050985;28;20045;-73
2021/01/06 07:44:36;;;;;;;13.48;7.55;;;0.80;68.60;;;;;;5051230;28;20057;-72
2021/01/06 07:47:11;;;;;;;14.80;8.05;;;0.80;69.50;;;;;;5051524;28;20052;-72
2021/01/06 07:49:45;;;;;;;13.18;7.60;;;0.90;70.70;;;;;;5052147;28;20063;-72
2021/01/06 07:52:38;;;;;;;13.40;7.97;;;0.80;70.60;;;;;;5051878;28;20068;-73
2021/01/06 07:55:18;;;;;;;10.32;6.88;;;0.90;71.00;;;;;;5051649;28;20395;-72
2021/01/06 07:57:50;;;;;;;16.85;8.05;;;0.90;71.20;;;;;;5048890;28;20052;-74
2021/01/06 08:00:27;;;;;;;13.82;7.97;;;0.80;70.80;;;;;;5051364;28;20053;-73
2021/01/06 08:03:05;;;;;;;14.68;8.40;;;0.80;72.20;;;;;;5048025;28;20044;-73
2021/01/06 08:05:35;;;;;;;14.50;7.88;;;0.80;72.30;;;;;;5049091;28;20652;-74
2021/01/06 08:08:08;;;;;;;14.55;8.60;;;0.80;72.40;;;;;;5050404;28;20044;-74
2021/01/06 08:10:38;;;;;;;14.05;7.68;;;0.80;72.80;;;;;;5048563;28;20866;-73
2021/01/06 08:13:17;;;;;;;14.27;7.65;;;0.80;73.60;;;;;;5048867;28;20052;-73
2021/01/06 08:15:48;;;;;;;15.32;7.90;;;0.80;73.40;;;;;;5049274;28;20487;-74
2021/01/06 08:18:28;;;;;;;14.45;8.02;;;0.80;73.20;;;;;;5047443;28;20080;-73
2021/01/06 08:21:04;;;;;;;24.08;8.27;;;0.70;73.50;;;;;;5048111;28;20041;-72
2021/01/06 08:23:51;;;;;;;15.50;8.52;;;0.70;74.30;;;;;;5042533;28;20047;-78
2021/01/06 08:26:23;;;;;;;16.33;8.48;;;0.80;74.50;;;;;;5050681;28;20411;-73
2021/01/06 08:28:51;;;;;;;17.38;8.55;;;0.70;74.40;;;;;;5050687;28;20075;-71
2021/01/06 08:31:20;;;;;;;15.95;8.32;;;0.70;74.60;;;;;;5051181;28;20053;-72
2021/01/06 08:33:52;;;;;;;15.13;8.60;;;0.80;75.20;;;;;;5049792;28;20055;-73
2021/01/06 08:36:23;;;;;;;15.02;8.38;;;0.80;75.00;;;;;;5051458;28;20044;-74
2021/01/06 08:39:13;;;;;;;17.13;8.85;;;0.80;75.40;;;;;;5051656;28;20049;-72
2021/01/06 08:41:41;;;;;;;15.75;8.88;;;0.80;75.10;;;;;;5032974;28;20056;-71
2021/01/06 08:44:31;;;;;;;15.80;8.50;;;0.80;75.10;;;;;;5051022;28;20053;-74
2021/01/06 08:47:00;;;;;;;14.88;8.35;;;0.80;75.30;;;;;;5035351;28;20037;-72
2021/01/06 08:49:30;;;;;;;24.42;9.27;;;0.80;75.30;;;;;;5054997;28;20063;-71
2021/01/06 08:52:21;;;;;;;12.73;8.70;;;0.70;75.30;;;;;;5054954;28;20052;-71
2021/01/06 08:54:58;;;;;;;16.63;9.68;;;0.70;75.40;;;;;;5054117;28;20053;-71
2021/01/06 08:57:29;;;;;;;16.75;9.90;;;0.80;75.80;;;;;;5055483;28;20053;-73
2021/01/06 08:59:57;;;;;;;16.73;9.23;;;0.80;75.70;;;;;;5054863;28;20049;-72
2021/01/06 09:02:45;;;;;;;16.70;9.07;;;0.70;75.70;;;;;;5054630;28;20041;-75
2021/01/06 09:05:55;;;;;;;17.33;9.95;;;0.80;76.00;;;;;;5054383;28;20063;-73
2021/01/06 09:08:25;;;;;;;16.08;9.48;;;0.80;75.70;;;;;;5054076;28;20057;-72
2021/01/06 09:11:21;;;;;;;14.82;9.23;;;0.80;75.60;;;;;;5052754;28;20041;-73
2021/01/06 09:13:56;;;;;;;16.83;9.85;;;0.90;76.00;;;;;;5025857;28;20045;-73
2021/01/06 09:16:34;;;;;;;15.77;9.70;;;0.80;74.80;;;;;;5054859;28;20103;-71
2021/01/06 09:19:04;;;;;;;16.30;9.25;;;0.90;75.20;;;;;;5043264;28;20049;-73
2021/01/06 09:21:33;;;;;;;14.10;8.63;;;0.80;74.60;;;;;;5054080;28;20068;-72
2021/01/06 09:24:07;;;;;;;16.05;9.52;;;0.80;75.10;;;;;;5054260;28;20053;-72
2021/01/06 09:26:37;;;;;;;16.15;9.88;;;0.80;74.50;;;;;;5054579;28;20044;-73
2021/01/06 09:29:07;;;;;;;15.90;8.88;;;0.80;75.20;;;;;;5053544;28;20049;-72
2021/01/06 09:31:40;;;;;;;17.60;9.75;;;0.80;75.00;;;;;;5051978;28;20053;-73
2021/01/06 09:34:09;;;;;;;13.63;8.60;;;0.80;75.20;;;;;;5054158;28;20040;-72
2021/01/06 09:36:36;;;;;;;17.00;9.85;;;0.80;74.90;;;;;;5052411;28;20053;-73
2021/01/06 09:39:08;;;;;;;17.10;9.80;;;0.90;75.80;;;;;;5052858;28;20049;-72
2021/01/06 09:41:36;;;;;;;17.23;9.82;;;1.00;75.10;;;;;;5051378;28;20511;-73
2021/01/06 09:44:06;;;;;;;16.60;10.38;;;0.90;74.70;;;;;;5051972;28;20072;-73
2021/01/06 09:46:46;;;;;;;14.45;8.93;;;1.00;74.70;;;;;;5052654;28;20049;-73
2021/01/06 09:49:16;;;;;;;16.88;9.30;;;0.90;74.20;;;;;;5052282;28;20079;-72
2021/01/06 09:51:48;;;;;;;16.08;9.23;;;0.90;74.50;;;;;;5051278;28;20052;-73
2021/01/06 09:54:15;;;;;;;15.77;9.70;;;0.90;74.60;;;;;;5052595;28;20430;-71
2021/01/06 09:56:42;;;;;;;15.63;8.73;;;1.00;74.60;;;;;;5051353;28;20423;-72
2021/01/06 09:59:19;;;;;;;14.40;9.10;;;0.90;73.80;;;;;;5051306;28;20090;-74
2021/01/06 10:01:53;;;;;;;14.27;9.02;;;1.00;74.70;;;;;;5050946;28;20499;-72
2021/01/06 10:04:23;;;;;;;15.15;9.15;;;1.00;74.60;;;;;;5050906;28;20587;-72
2021/01/06 10:06:58;;;;;;;15.68;9.52;;;1.00;74.60;;;;;;5052366;28;20045;-72
2021/01/06 10:09:34;;;;;;;15.35;9.43;;;0.90;73.10;;;;;;5052227;28;20422;-72
2021/01/06 10:12:29;;;;;;;15.07;9.40;;;1.10;74.70;;;;;;5051721;28;20044;-72
2021/01/06 10:15:21;;;;;;;15.63;9.63;;;1.00;73.90;;;;;;5050496;28;20059;-71
2021/01/06 10:18:01;;;;;;;15.52;9.40;;;1.10;73.70;;;;;;5051522;28;20049;-70
2021/01/06 10:20:34;;;;;;;16.67;9.50;;;1.00;71.90;;;;;;5051259;28;20045;-74
2021/01/06 10:23:15;;;;;;;16.55;9.45;;;0.90;72.30;;;;;;5054063;28;20049;-74
2021/01/06 10:25:47;;;;;;;17.10;9.80;;;1.10;74.50;;;;;;5053392;28;20056;-74
2021/01/06 10:28:31;;;;;;;15.45;8.90;;;1.10;73.70;;;;;;5053403;28;20045;-73
2021/01/06 10:31:03;;;;;;;14.32;9.13;;;1.10;72.70;;;;;;5038748;28;20063;-73
2021/01/06 10:33:32;;;;;;;19.30;9.90;;;1.10;72.60;;;;;;5053610;28;20061;-75
2021/01/06 10:36:31;;;;;;;17.08;9.02;;;1.00;70.70;;;;;;5044165;28;20052;-72
2021/01/06 10:39:00;;;;;;;15.38;9.60;;;1.10;71.50;;;;;;5045913;28;20053;-73
2021/01/06 10:41:29;;;;;;;18.95;10.07;;;1.20;73.00;;;;;;5053824;28;20055;-73
2021/01/06 10:43:58;;;;;;;16.70;9.68;;;1.20;73.60;;;;;;5050367;28;20059;-75
2021/01/06 10:46:43;;;;;;;15.50;9.48;;;1.10;72.10;;;;;;5051795;28;20049;-72
2021/01/06 10:49:47;;;;;;;16.33;9.63;;;1.10;72.80;;;;;;5045588;28;20041;-73
2021/01/06 10:52:30;;;;;;;16.38;9.27;;;1.10;71.00;;;;;;5042770;28;20053;-72
2021/01/06 10:55:21;;;;;;;15.38;9.40;;;1.20;72.30;;;;;;5048663;28;20053;-72
2021/01/06 10:57:53;;;;;;;15.80;9.90;;;1.30;71.60;;;;;;5051395;28;20049;-73
2021/01/06 11:00:22;;;;;;;15.05;9.10;;;1.30;69.80;;;;;;5032652;28;20049;-73
2021/01/06 11:03:35;;;;;;;16.88;9.68;;;1.20;69.10;;;;;;5033073;28;20057;-73
2021/01/06 11:06:15;;;;;;;15.63;9.43;;;1.30;68.90;;;;;;5042683;28;20430;-72
2021/01/06 11:09:03;;;;;;;17.33;10.52;;;1.30;69.50;;;;;;5046766;28;20053;-72
2021/01/06 11:12:02;;;;;;;17.23;10.05;;;1.30;71.40;;;;;;5052057;28;20724;-72
2021/01/06 11:14:57;;;;;;;16.30;9.50;;;1.30;69.60;;;;;;5052055;28;20558;-73
2021/01/06 11:17:30;;;;;;;18.45;10.35;;;1.30;70.10;;;;;;5051003;28;20666;-72
2021/01/06 11:19:58;;;;;;;15.98;10.43;;;1.20;69.50;;;;;;5051585;28;20056;-77
2021/01/06 11:22:42;;;;;;;15.40;9.93;;;1.20;69.80;;;;;;5051804;28;20060;-72
2021/01/06 11:25:40;;;;;;;18.13;10.27;;;1.20;70.90;;;;;;5050280;28;20132;-72
2021/01/06 11:28:27;;;;;;;18.63;10.70;;;1.20;70.90;;;;;;5048961;28;20055;-73
2021/01/06 11:31:24;;;;;;;19.55;10.85;;;1.20;70.60;;;;;;5049594;28;20103;-74
2021/01/06 11:33:52;;;;;;;20.20;11.63;;;1.30;71.80;;;;;;5004543;28;20059;-72
2021/01/06 11:36:40;;;;;;;20.40;11.15;;;1.20;70.80;;;;;;5050139;28;20045;-73
2021/01/06 11:39:09;;;;;;;21.80;12.38;;;1.10;71.50;;;;;;5047207;28;20055;-73
2021/01/06 11:42:03;;;;;;;20.27;11.80;;;1.20;73.70;;;;;;5049867;28;20053;-73
2021/01/06 11:44:35;;;;;;;19.08;12.50;;;1.10;73.30;;;;;;5049564;28;20059;-74
2021/01/06 11:47:26;;;;;;;20.02;12.73;;;1.10;74.10;;;;;;5051636;28;20047;-72
2021/01/06 11:49:57;;;;;;;19.02;12.90;;;1.10;74.70;;;;;;5043212;28;20436;-73
2021/01/06 11:52:35;;;;;;;24.52;13.07;;;1.10;74.70;;;;;;5052098;28;20427;-72
2021/01/06 11:55:29;;;;;;;20.95;13.18;;;1.10;74.70;;;;;;5032013;28;20053;-73
2021/01/06 11:58:24;;;;;;;23.20;13.40;;;1.10;75.30;;;;;;5030612;28;20060;-73
2021/01/06 12:01:34;;;;;;;21.73;13.48;;;1.10;75.50;;;;;;5049410;28;20045;-73
2021/01/06 12:04:32;;;;;;;23.58;14.50;;;1.10;75.70;;;;;;5050109;28;20051;-73
2021/01/06 12:07:29;;;;;;;25.73;13.30;;;1.20;76.20;;;;;;5051199;28;20056;-73
2021/01/06 12:10:09;;;;;;;23.65;13.60;;;1.10;75.90;;;;;;5050511;28;20049;-72
2021/01/06 12:13:03;;;;;;;27.70;15.45;;;1.10;75.90;;;;;;5050835;28;20045;-72
2021/01/06 12:15:42;;;;;;;26.90;14.70;;;1.20;76.50;;;;;;5046241;28;20080;-72
2021/01/06 12:18:25;;;;;;;27.02;13.85;;;1.10;75.90;;;;;;5051583;28;20045;-72
2021/01/06 12:20:53;;;;;;;22.85;12.88;;;1.10;76.30;;;;;;5050844;28;20056;-72
2021/01/06 12:23:37;;;;;;;22.98;13.40;;;1.10;76.70;;;;;;5054946;28;20405;-73
2021/01/06 12:26:05;;;;;;;21.83;12.38;;;1.10;76.80;;;;;;5057117;28;20123;-73
2021/01/06 12:28:41;;;;;;;25.95;13.65;;;1.10;76.50;;;;;;5058225;28;20062;-73
2021/01/06 12:31:14;;;;;;;23.90;12.80;;;1.00;76.60;;;;;;5055609;28;20565;-72
2021/01/06 12:33:48;;;;;;;21.33;12.23;;;1.00;76.80;;;;;;5056868;28;20044;-73
2021/01/06 12:36:23;;;;;;;21.67;12.40;;;1.10;77.10;;;;;;5057205;28;20074;-72
2021/01/06 12:38:51;;;;;;;;;;;1.10;77.00;;;;;;5056693;28;20045;-73
2021/01/06 12:41:19;;;;;;;21.63;13.10;;;1.20;77.40;;;;;;5054640;28;19924;-74
2021/01/06 12:43:52;;;;;;;18.55;11.68;;;1.20;77.10;;;;;;5053031;28;20049;-75
2021/01/06 12:46:34;;;;;;;17.55;10.45;;;1.20;76.90;;;;;;5055409;28;20056;-70
2021/01/06 12:49:29;;;;;;;21.40;12.38;;;1.10;76.60;;;;;;5056105;28;20495;-72
2021/01/06 12:52:18;;;;;;;21.33;12.43;;;1.20;77.10;;;;;;5049857;28;20052;-72
2021/01/06 12:54:51;;;;;;;24.10;12.93;;;1.20;77.00;;;;;;5053940;28;20060;-71
2021/01/06 12:57:22;;;;;;;26.13;13.85;;;1.20;76.80;;;;;;5057227;28;20045;-71
2021/01/06 12:59:57;;;;;;;23.80;13.13;;;1.10;76.60;;;;;;5054940;28;20049;-72
2021/01/06 13:02:30;;;;;;;24.42;13.98;;;1.10;76.40;;;;;;5056838;28;20053;-73
2021/01/06 13:05:16;;;;;;;24.30;14.00;;;1.20;76.80;;;;;;5055868;28;20426;-73
2021/01/06 13:07:49;;;;;;;26.30;14.02;;;1.20;77.10;;;;;;5057723;28;20052;-73
2021/01/06 13:10:30;;;;;;;26.10;14.13;;;1.10;76.80;;;;;;5054770;28;20051;-71
2021/01/06 13:13:04;;;;;;;27.70;14.43;;;1.10;76.50;;;;;;5067253;28;20059;-71
2021/01/06 13:15:36;;;;;;;;;;;1.20;77.20;;;;;;5075034;28;20052;-70
2021/01/06 13:18:06;;;;;;;25.50;14.15;;;1.10;76.80;;;;;;5070365;28;19927;-72
2021/01/06 13:20:55;;;;;;;26.55;14.13;;;1.00;76.20;;;;;;5074987;28;20068;-73
2021/01/06 13:23:37;;;;;;;20.70;12.90;;;1.10;77.30;;;;;;5074754;28;20056;-74